Aviation Digital Data Service (ADDS)

Output produced by TAFs form (2106 UTC 19 July 2018)
found at http://www.aviationweather.gov/adds/tafs/
 
KFTY 192053Z 08004KT 10SM CLR 31/21 A2993 RMK AO2 LTG DSNT SW AND W SLP124 T03110211 55013
KFTY 191734Z 1918/2018 10007KT P6SM VCSH SCT025 BKN040 
     TEMPO 1921/2001 VRB15G25KT 4SM TSRA BKN035CB 
     FM200200 10004KT P6SM SCT060 SCT150 
     FM200800 09004KT P6SM BKN015 
     FM201600 10006KT P6SM BKN030